sensor_id;sensor_type;location;lat;lon;timestamp;P1;durP1;ratioP1;P2;durP2;ratioP2
33826;SDS011;20128;45.582;5.298;2022-12-31T00:00:59;16.45;;;7.13;;
33826;SDS011;20128;45.582;5.298;2022-12-31T00:03:25;17.27;;;6.90;;
33826;SDS011;20128;45.582;5.298;2022-12-31T00:05:51;16.60;;;8.30;;
33826;SDS011;20128;45.582;5.298;2022-12-31T00:08:16;22.27;;;8.25;;
33826;SDS011;20128;45.582;5.298;2022-12-31T00:10:42;16.27;;;7.25;;
33826;SDS011;20128;45.582;5.298;2022-12-31T00:13:09;20.60;;;7.60;;
33826;SDS011;20128;45.582;5.298;2022-12-31T00:15:36;16.45;;;7.68;;
33826;SDS011;20128;45.582;5.298;2022-12-31T00:18:05;17.63;;;7.55;;
33826;SDS011;20128;45.582;5.298;2022-12-31T00:20:31;17.63;;;7.38;;
33826;SDS011;20128;45.582;5.298;2022-12-31T00:22:57;23.77;;;8.18;;
33826;SDS011;20128;45.582;5.298;2022-12-31T00:25:23;16.85;;;7.43;;
33826;SDS011;20128;45.582;5.298;2022-12-31T00:27:49;14.98;;;6.78;;
33826;SDS011;20128;45.582;5.298;2022-12-31T00:30:15;20.95;;;8.82;;
33826;SDS011;20128;45.582;5.298;2022-12-31T00:32:41;14.57;;;6.97;;
33826;SDS011;20128;45.582;5.298;2022-12-31T00:35:07;19.55;;;7.95;;
33826;SDS011;20128;45.582;5.298;2022-12-31T00:37:33;20.52;;;7.93;;
33826;SDS011;20128;45.582;5.298;2022-12-31T00:39:58;16.38;;;7.00;;
33826;SDS011;20128;45.582;5.298;2022-12-31T00:42:24;15.50;;;6.80;;
33826;SDS011;20128;45.582;5.298;2022-12-31T00:44:50;25.52;;;7.35;;
33826;SDS011;20128;45.582;5.298;2022-12-31T00:47:16;16.83;;;6.65;;
33826;SDS011;20128;45.582;5.298;2022-12-31T00:49:41;20.55;;;6.82;;
33826;SDS011;20128;45.582;5.298;2022-12-31T00:52:07;22.73;;;7.38;;
33826;SDS011;20128;45.582;5.298;2022-12-31T00:54:33;18.20;;;6.88;;
33826;SDS011;20128;45.582;5.298;2022-12-31T00:56:58;12.77;;;6.47;;
33826;SDS011;20128;45.582;5.298;2022-12-31T00:59:24;19.52;;;7.70;;
33826;SDS011;20128;45.582;5.298;2022-12-31T01:01:51;15.45;;;5.65;;
33826;SDS011;20128;45.582;5.298;2022-12-31T01:04:18;16.85;;;6.50;;
33826;SDS011;20128;45.582;5.298;2022-12-31T01:06:45;19.92;;;6.28;;
33826;SDS011;20128;45.582;5.298;2022-12-31T01:09:12;12.32;;;5.95;;
33826;SDS011;20128;45.582;5.298;2022-12-31T01:11:40;19.85;;;6.63;;
33826;SDS011;20128;45.582;5.298;2022-12-31T01:14:07;15.63;;;5.97;;
33826;SDS011;20128;45.582;5.298;2022-12-31T01:16:37;20.35;;;7.10;;
33826;SDS011;20128;45.582;5.298;2022-12-31T01:19:06;17.50;;;6.30;;
33826;SDS011;20128;45.582;5.298;2022-12-31T01:21:34;18.80;;;6.30;;
33826;SDS011;20128;45.582;5.298;2022-12-31T01:24:01;17.63;;;5.80;;
33826;SDS011;20128;45.582;5.298;2022-12-31T01:26:27;13.35;;;5.03;;
33826;SDS011;20128;45.582;5.298;2022-12-31T01:28:53;16.58;;;6.47;;
33826;SDS011;20128;45.582;5.298;2022-12-31T01:31:20;15.55;;;5.95;;
33826;SDS011;20128;45.582;5.298;2022-12-31T01:33:47;19.20;;;6.45;;
33826;SDS011;20128;45.582;5.298;2022-12-31T01:36:14;21.17;;;7.55;;
33826;SDS011;20128;45.582;5.298;2022-12-31T01:38:41;19.85;;;6.18;;
33826;SDS011;20128;45.582;5.298;2022-12-31T01:41:12;13.90;;;5.75;;
33826;SDS011;20128;45.582;5.298;2022-12-31T01:43:43;17.60;;;6.13;;
33826;SDS011;20128;45.582;5.298;2022-12-31T01:46:18;15.13;;;6.05;;
33826;SDS011;20128;45.582;5.298;2022-12-31T01:49:21;17.83;;;6.72;;
33826;SDS011;20128;45.582;5.298;2022-12-31T01:51:55;18.02;;;5.75;;
33826;SDS011;20128;45.582;5.298;2022-12-31T01:54:42;12.05;;;5.95;;
33826;SDS011;20128;45.582;5.298;2022-12-31T01:57:12;16.45;;;5.90;;
33826;SDS011;20128;45.582;5.298;2022-12-31T01:59:39;14.18;;;6.25;;
33826;SDS011;20128;45.582;5.298;2022-12-31T02:02:06;14.77;;;6.45;;
33826;SDS011;20128;45.582;5.298;2022-12-31T02:04:32;17.00;;;5.80;;
33826;SDS011;20128;45.582;5.298;2022-12-31T02:06:59;13.38;;;6.13;;
33826;SDS011;20128;45.582;5.298;2022-12-31T02:09:31;9.32;;;5.15;;
33826;SDS011;20128;45.582;5.298;2022-12-31T02:11:58;16.83;;;6.72;;
33826;SDS011;20128;45.582;5.298;2022-12-31T02:14:25;16.73;;;5.45;;
33826;SDS011;20128;45.582;5.298;2022-12-31T02:19:49;13.05;;;5.57;;
33826;SDS011;20128;45.582;5.298;2022-12-31T02:28:09;19.02;;;5.45;;
33826;SDS011;20128;45.582;5.298;2022-12-31T02:36:17;10.52;;;4.80;;
33826;SDS011;20128;45.582;5.298;2022-12-31T02:38:47;16.20;;;5.40;;
33826;SDS011;20128;45.582;5.298;2022-12-31T02:41:16;18.85;;;5.45;;
33826;SDS011;20128;45.582;5.298;2022-12-31T02:44:15;13.32;;;4.88;;
33826;SDS011;20128;45.582;5.298;2022-12-31T03:00:03;15.85;;;4.72;;
33826;SDS011;20128;45.582;5.298;2022-12-31T03:02:51;15.15;;;4.55;;
33826;SDS011;20128;45.582;5.298;2022-12-31T03:05:20;10.07;;;4.10;;
33826;SDS011;20128;45.582;5.298;2022-12-31T03:07:48;15.95;;;5.05;;
33826;SDS011;20128;45.582;5.298;2022-12-31T03:10:15;16.20;;;4.78;;
33826;SDS011;20128;45.582;5.298;2022-12-31T03:12:42;15.98;;;5.15;;
33826;SDS011;20128;45.582;5.298;2022-12-31T03:15:13;8.82;;;4.68;;
33826;SDS011;20128;45.582;5.298;2022-12-31T03:20:45;11.13;;;4.22;;
33826;SDS011;20128;45.582;5.298;2022-12-31T03:23:33;13.05;;;5.38;;
33826;SDS011;20128;45.582;5.298;2022-12-31T03:26:01;11.85;;;4.65;;
33826;SDS011;20128;45.582;5.298;2022-12-31T03:28:33;17.58;;;3.88;;
33826;SDS011;20128;45.582;5.298;2022-12-31T03:30:59;10.25;;;4.50;;
33826;SDS011;20128;45.582;5.298;2022-12-31T03:33:29;16.30;;;6.18;;
33826;SDS011;20128;45.582;5.298;2022-12-31T03:35:56;14.95;;;6.10;;
33826;SDS011;20128;45.582;5.298;2022-12-31T03:38:22;15.80;;;6.07;;
33826;SDS011;20128;45.582;5.298;2022-12-31T03:40:49;13.93;;;5.07;;
33826;SDS011;20128;45.582;5.298;2022-12-31T03:43:16;12.77;;;5.20;;
33826;SDS011;20128;45.582;5.298;2022-12-31T03:45:43;15.27;;;5.63;;
33826;SDS011;20128;45.582;5.298;2022-12-31T03:48:12;14.88;;;5.90;;
33826;SDS011;20128;45.582;5.298;2022-12-31T03:50:37;13.63;;;5.40;;
33826;SDS011;20128;45.582;5.298;2022-12-31T03:53:03;17.67;;;5.53;;
33826;SDS011;20128;45.582;5.298;2022-12-31T03:55:29;15.50;;;5.25;;
33826;SDS011;20128;45.582;5.298;2022-12-31T03:57:55;15.45;;;4.97;;
33826;SDS011;20128;45.582;5.298;2022-12-31T04:00:21;12.20;;;5.35;;
33826;SDS011;20128;45.582;5.298;2022-12-31T04:02:47;17.17;;;6.82;;
33826;SDS011;20128;45.582;5.298;2022-12-31T04:05:13;19.25;;;6.20;;
33826;SDS011;20128;45.582;5.298;2022-12-31T04:07:40;21.75;;;6.13;;
33826;SDS011;20128;45.582;5.298;2022-12-31T04:10:07;19.85;;;5.57;;
33826;SDS011;20128;45.582;5.298;2022-12-31T04:12:34;15.02;;;5.25;;
33826;SDS011;20128;45.582;5.298;2022-12-31T04:15:00;18.20;;;6.47;;
33826;SDS011;20128;45.582;5.298;2022-12-31T04:17:26;17.88;;;5.68;;
33826;SDS011;20128;45.582;5.298;2022-12-31T04:19:53;13.55;;;6.05;;
33826;SDS011;20128;45.582;5.298;2022-12-31T04:22:19;17.13;;;5.32;;
33826;SDS011;20128;45.582;5.298;2022-12-31T04:24:45;7.78;;;4.60;;
33826;SDS011;20128;45.582;5.298;2022-12-31T04:27:11;12.02;;;4.53;;
33826;SDS011;20128;45.582;5.298;2022-12-31T04:29:37;15.70;;;5.85;;
33826;SDS011;20128;45.582;5.298;2022-12-31T04:32:03;10.55;;;5.05;;
33826;SDS011;20128;45.582;5.298;2022-12-31T04:34:30;14.38;;;5.35;;
33826;SDS011;20128;45.582;5.298;2022-12-31T04:36:56;18.90;;;5.43;;
33826;SDS011;20128;45.582;5.298;2022-12-31T04:39:22;13.18;;;5.45;;
33826;SDS011;20128;45.582;5.298;2022-12-31T04:41:48;11.70;;;4.93;;
33826;SDS011;20128;45.582;5.298;2022-12-31T04:44:14;11.00;;;4.63;;
33826;SDS011;20128;45.582;5.298;2022-12-31T04:46:40;10.40;;;5.03;;
33826;SDS011;20128;45.582;5.298;2022-12-31T04:49:06;8.73;;;5.10;;
33826;SDS011;20128;45.582;5.298;2022-12-31T04:51:31;17.55;;;4.68;;
33826;SDS011;20128;45.582;5.298;2022-12-31T04:53:58;10.73;;;4.43;;
33826;SDS011;20128;45.582;5.298;2022-12-31T04:56:24;14.00;;;4.40;;
33826;SDS011;20128;45.582;5.298;2022-12-31T04:58:50;14.35;;;4.63;;
33826;SDS011;20128;45.582;5.298;2022-12-31T05:01:16;9.77;;;4.22;;
33826;SDS011;20128;45.582;5.298;2022-12-31T05:03:42;13.25;;;4.30;;
33826;SDS011;20128;45.582;5.298;2022-12-31T05:06:12;14.15;;;4.97;;
33826;SDS011;20128;45.582;5.298;2022-12-31T05:08:39;8.73;;;4.00;;
33826;SDS011;20128;45.582;5.298;2022-12-31T05:11:05;11.70;;;4.93;;
33826;SDS011;20128;45.582;5.298;2022-12-31T05:13:32;13.52;;;4.57;;
33826;SDS011;20128;45.582;5.298;2022-12-31T05:15:57;14.15;;;4.70;;
33826;SDS011;20128;45.582;5.298;2022-12-31T05:18:23;13.77;;;4.20;;
33826;SDS011;20128;45.582;5.298;2022-12-31T05:20:49;11.60;;;4.60;;
33826;SDS011;20128;45.582;5.298;2022-12-31T05:23:15;10.60;;;3.60;;
33826;SDS011;20128;45.582;5.298;2022-12-31T05:25:42;12.43;;;4.00;;
33826;SDS011;20128;45.582;5.298;2022-12-31T05:28:08;6.65;;;3.55;;
33826;SDS011;20128;45.582;5.298;2022-12-31T05:30:34;17.65;;;4.18;;
33826;SDS011;20128;45.582;5.298;2022-12-31T05:33:00;10.45;;;4.40;;
33826;SDS011;20128;45.582;5.298;2022-12-31T05:35:26;8.15;;;3.70;;
33826;SDS011;20128;45.582;5.298;2022-12-31T05:37:52;10.52;;;3.95;;
33826;SDS011;20128;45.582;5.298;2022-12-31T05:40:18;12.15;;;3.90;;
33826;SDS011;20128;45.582;5.298;2022-12-31T05:42:43;11.82;;;3.85;;
33826;SDS011;20128;45.582;5.298;2022-12-31T05:45:09;13.48;;;3.97;;
33826;SDS011;20128;45.582;5.298;2022-12-31T05:47:38;14.35;;;3.85;;
33826;SDS011;20128;45.582;5.298;2022-12-31T05:50:05;12.77;;;4.25;;
33826;SDS011;20128;45.582;5.298;2022-12-31T05:52:34;9.07;;;4.47;;
33826;SDS011;20128;45.582;5.298;2022-12-31T05:55:00;13.43;;;3.55;;
33826;SDS011;20128;45.582;5.298;2022-12-31T05:57:26;10.00;;;3.80;;
33826;SDS011;20128;45.582;5.298;2022-12-31T05:59:51;13.50;;;4.13;;
33826;SDS011;20128;45.582;5.298;2022-12-31T06:02:18;11.82;;;5.72;;
33826;SDS011;20128;45.582;5.298;2022-12-31T06:04:44;20.17;;;5.47;;
33826;SDS011;20128;45.582;5.298;2022-12-31T06:07:10;18.33;;;5.20;;
33826;SDS011;20128;45.582;5.298;2022-12-31T06:09:35;10.02;;;4.35;;
33826;SDS011;20128;45.582;5.298;2022-12-31T06:12:01;12.52;;;5.63;;
33826;SDS011;20128;45.582;5.298;2022-12-31T06:14:28;8.73;;;3.20;;
33826;SDS011;20128;45.582;5.298;2022-12-31T06:16:53;10.88;;;4.07;;
33826;SDS011;20128;45.582;5.298;2022-12-31T06:19:19;13.27;;;4.93;;
33826;SDS011;20128;45.582;5.298;2022-12-31T06:21:44;13.25;;;4.80;;
33826;SDS011;20128;45.582;5.298;2022-12-31T06:24:10;12.05;;;3.88;;
33826;SDS011;20128;45.582;5.298;2022-12-31T06:26:36;11.10;;;3.35;;
33826;SDS011;20128;45.582;5.298;2022-12-31T06:29:02;10.20;;;4.05;;
33826;SDS011;20128;45.582;5.298;2022-12-31T06:31:27;8.40;;;3.63;;
33826;SDS011;20128;45.582;5.298;2022-12-31T06:33:53;16.42;;;5.72;;
33826;SDS011;20128;45.582;5.298;2022-12-31T06:36:19;10.10;;;3.72;;
33826;SDS011;20128;45.582;5.298;2022-12-31T06:38:46;9.32;;;3.58;;
33826;SDS011;20128;45.582;5.298;2022-12-31T06:41:12;12.27;;;5.70;;
33826;SDS011;20128;45.582;5.298;2022-12-31T06:43:40;9.50;;;3.78;;
33826;SDS011;20128;45.582;5.298;2022-12-31T06:46:08;9.90;;;3.47;;
33826;SDS011;20128;45.582;5.298;2022-12-31T06:48:35;13.20;;;3.35;;
33826;SDS011;20128;45.582;5.298;2022-12-31T06:51:06;7.13;;;3.55;;
33826;SDS011;20128;45.582;5.298;2022-12-31T06:53:33;10.52;;;3.28;;
33826;SDS011;20128;45.582;5.298;2022-12-31T06:58:32;8.85;;;3.38;;
33826;SDS011;20128;45.582;5.298;2022-12-31T07:06:29;8.07;;;3.73;;
33826;SDS011;20128;45.582;5.298;2022-12-31T07:09:05;7.75;;;3.40;;
33826;SDS011;20128;45.582;5.298;2022-12-31T07:11:59;10.40;;;3.47;;
33826;SDS011;20128;45.582;5.298;2022-12-31T07:14:51;6.70;;;3.05;;
33826;SDS011;20128;45.582;5.298;2022-12-31T07:20:17;7.63;;;3.85;;
33826;SDS011;20128;45.582;5.298;2022-12-31T07:22:44;11.98;;;4.57;;
33826;SDS011;20128;45.582;5.298;2022-12-31T07:25:16;10.07;;;4.05;;
33826;SDS011;20128;45.582;5.298;2022-12-31T07:30:21;14.13;;;3.60;;
33826;SDS011;20128;45.582;5.298;2022-12-31T07:38:23;14.85;;;4.10;;
33826;SDS011;20128;45.582;5.298;2022-12-31T07:49:15;14.00;;;3.50;;
33826;SDS011;20128;45.582;5.298;2022-12-31T07:51:41;11.70;;;3.60;;
33826;SDS011;20128;45.582;5.298;2022-12-31T07:54:07;14.55;;;4.00;;
33826;SDS011;20128;45.582;5.298;2022-12-31T07:56:33;10.65;;;4.20;;
33826;SDS011;20128;45.582;5.298;2022-12-31T07:59:01;20.73;;;4.47;;
33826;SDS011;20128;45.582;5.298;2022-12-31T08:04:41;8.95;;;4.20;;
33826;SDS011;20128;45.582;5.298;2022-12-31T08:09:48;15.32;;;4.28;;
33826;SDS011;20128;45.582;5.298;2022-12-31T08:12:36;11.77;;;3.83;;
33826;SDS011;20128;45.582;5.298;2022-12-31T08:15:12;14.90;;;3.53;;
33826;SDS011;20128;45.582;5.298;2022-12-31T08:17:40;12.07;;;4.05;;
33826;SDS011;20128;45.582;5.298;2022-12-31T08:20:06;9.57;;;3.65;;
33826;SDS011;20128;45.582;5.298;2022-12-31T08:25:33;14.20;;;4.20;;
33826;SDS011;20128;45.582;5.298;2022-12-31T08:30:40;10.45;;;3.38;;
33826;SDS011;20128;45.582;5.298;2022-12-31T08:35:54;8.63;;;3.47;;
33826;SDS011;20128;45.582;5.298;2022-12-31T08:38:38;7.90;;;3.90;;
33826;SDS011;20128;45.582;5.298;2022-12-31T08:49:14;8.48;;;5.25;;
33826;SDS011;20128;45.582;5.298;2022-12-31T08:51:40;12.95;;;4.35;;
33826;SDS011;20128;45.582;5.298;2022-12-31T08:54:08;12.02;;;4.18;;
33826;SDS011;20128;45.582;5.298;2022-12-31T08:56:39;8.55;;;3.78;;
33826;SDS011;20128;45.582;5.298;2022-12-31T09:10:37;13.35;;;4.30;;
33826;SDS011;20128;45.582;5.298;2022-12-31T09:19:07;14.07;;;4.05;;
33826;SDS011;20128;45.582;5.298;2022-12-31T09:21:33;11.75;;;3.88;;
33826;SDS011;20128;45.582;5.298;2022-12-31T09:23:59;5.88;;;3.53;;
33826;SDS011;20128;45.582;5.298;2022-12-31T09:26:35;14.32;;;3.80;;
33826;SDS011;20128;45.582;5.298;2022-12-31T09:32:07;8.70;;;2.65;;
33826;SDS011;20128;45.582;5.298;2022-12-31T09:34:46;8.70;;;2.92;;
33826;SDS011;20128;45.582;5.298;2022-12-31T09:37:17;8.63;;;3.03;;
33826;SDS011;20128;45.582;5.298;2022-12-31T09:39:53;11.50;;;3.13;;
33826;SDS011;20128;45.582;5.298;2022-12-31T09:53:34;6.28;;;2.90;;
33826;SDS011;20128;45.582;5.298;2022-12-31T09:58:55;7.43;;;2.55;;
33826;SDS011;20128;45.582;5.298;2022-12-31T10:09:45;12.05;;;3.42;;
33826;SDS011;20128;45.582;5.298;2022-12-31T10:12:26;4.93;;;2.15;;
33826;SDS011;20128;45.582;5.298;2022-12-31T10:20:56;4.32;;;2.00;;
33826;SDS011;20128;45.582;5.298;2022-12-31T10:29:31;13.77;;;2.50;;
33826;SDS011;20128;45.582;5.298;2022-12-31T10:35:11;10.48;;;1.95;;
33826;SDS011;20128;45.582;5.298;2022-12-31T10:37:59;6.18;;;1.90;;
33826;SDS011;20128;45.582;5.298;2022-12-31T10:43:09;4.63;;;1.75;;
33826;SDS011;20128;45.582;5.298;2022-12-31T10:59:59;6.63;;;3.33;;
33826;SDS011;20128;45.582;5.298;2022-12-31T11:14:21;3.55;;;1.65;;
33826;SDS011;20128;45.582;5.298;2022-12-31T11:19:30;6.63;;;2.75;;
33826;SDS011;20128;45.582;5.298;2022-12-31T11:22:42;6.85;;;2.65;;
33826;SDS011;20128;45.582;5.298;2022-12-31T11:30:42;6.53;;;2.22;;
33826;SDS011;20128;45.582;5.298;2022-12-31T11:44:47;4.97;;;2.00;;
33826;SDS011;20128;45.582;5.298;2022-12-31T11:50:39;7.43;;;2.53;;
33826;SDS011;20128;45.582;5.298;2022-12-31T11:58:27;5.00;;;1.50;;
33826;SDS011;20128;45.582;5.298;2022-12-31T12:03:29;5.00;;;2.40;;
33826;SDS011;20128;45.582;5.298;2022-12-31T12:05:56;5.18;;;2.58;;
33826;SDS011;20128;45.582;5.298;2022-12-31T12:08:23;6.28;;;2.65;;
33826;SDS011;20128;45.582;5.298;2022-12-31T12:10:54;5.55;;;1.98;;
33826;SDS011;20128;45.582;5.298;2022-12-31T12:13:37;7.82;;;2.33;;
33826;SDS011;20128;45.582;5.298;2022-12-31T12:16:05;4.57;;;2.55;;
33826;SDS011;20128;45.582;5.298;2022-12-31T12:18:39;6.15;;;2.22;;
33826;SDS011;20128;45.582;5.298;2022-12-31T12:21:18;7.70;;;2.30;;
33826;SDS011;20128;45.582;5.298;2022-12-31T12:23:57;9.05;;;2.33;;
33826;SDS011;20128;45.582;5.298;2022-12-31T12:26:32;9.05;;;2.28;;
33826;SDS011;20128;45.582;5.298;2022-12-31T12:31:59;8.77;;;2.05;;
33826;SDS011;20128;45.582;5.298;2022-12-31T12:34:35;7.63;;;2.42;;
33826;SDS011;20128;45.582;5.298;2022-12-31T12:37:04;5.03;;;2.25;;
33826;SDS011;20128;45.582;5.298;2022-12-31T12:39:42;3.05;;;1.73;;
33826;SDS011;20128;45.582;5.298;2022-12-31T12:42:12;6.80;;;2.10;;
33826;SDS011;20128;45.582;5.298;2022-12-31T12:44:39;3.92;;;1.58;;
33826;SDS011;20128;45.582;5.298;2022-12-31T12:47:07;3.20;;;1.70;;
33826;SDS011;20128;45.582;5.298;2022-12-31T12:49:40;9.20;;;2.47;;
33826;SDS011;20128;45.582;5.298;2022-12-31T13:13:28;9.98;;;3.03;;
33826;SDS011;20128;45.582;5.298;2022-12-31T13:16:50;11.45;;;2.55;;
33826;SDS011;20128;45.582;5.298;2022-12-31T13:21:53;8.65;;;2.28;;
33826;SDS011;20128;45.582;5.298;2022-12-31T13:24:42;10.55;;;2.53;;
33826;SDS011;20128;45.582;5.298;2022-12-31T13:27:34;7.88;;;2.45;;
33826;SDS011;20128;45.582;5.298;2022-12-31T13:30:05;7.82;;;2.53;;
33826;SDS011;20128;45.582;5.298;2022-12-31T13:32:39;6.97;;;1.70;;
33826;SDS011;20128;45.582;5.298;2022-12-31T13:35:37;15.38;;;2.53;;
33826;SDS011;20128;45.582;5.298;2022-12-31T13:41:02;6.88;;;2.40;;
33826;SDS011;20128;45.582;5.298;2022-12-31T13:43:42;4.90;;;2.40;;
33826;SDS011;20128;45.582;5.298;2022-12-31T13:48:53;11.98;;;2.78;;
33826;SDS011;20128;45.582;5.298;2022-12-31T13:51:26;10.00;;;3.53;;
33826;SDS011;20128;45.582;5.298;2022-12-31T13:54:09;5.93;;;2.38;;
33826;SDS011;20128;45.582;5.298;2022-12-31T13:57:00;6.57;;;2.80;;
33826;SDS011;20128;45.582;5.298;2022-12-31T13:59:44;5.78;;;2.20;;
33826;SDS011;20128;45.582;5.298;2022-12-31T14:02:28;11.05;;;2.80;;
33826;SDS011;20128;45.582;5.298;2022-12-31T14:05:45;9.07;;;2.70;;
33826;SDS011;20128;45.582;5.298;2022-12-31T14:07:53;5.88;;;1.92;;
33826;SDS011;20128;45.582;5.298;2022-12-31T14:18:57;17.40;;;3.92;;
33826;SDS011;20128;45.582;5.298;2022-12-31T14:24:55;6.43;;;2.38;;
33826;SDS011;20128;45.582;5.298;2022-12-31T14:27:15;10.85;;;3.03;;
33826;SDS011;20128;45.582;5.298;2022-12-31T14:29:47;9.57;;;2.30;;
33826;SDS011;20128;45.582;5.298;2022-12-31T14:43:56;7.63;;;2.33;;
33826;SDS011;20128;45.582;5.298;2022-12-31T14:52:31;12.13;;;3.20;;
33826;SDS011;20128;45.582;5.298;2022-12-31T14:57:35;7.00;;;2.15;;
33826;SDS011;20128;45.582;5.298;2022-12-31T15:02:50;8.52;;;3.00;;
33826;SDS011;20128;45.582;5.298;2022-12-31T15:05:19;8.50;;;2.97;;
33826;SDS011;20128;45.582;5.298;2022-12-31T15:15:33;12.80;;;3.85;;
33826;SDS011;20128;45.582;5.298;2022-12-31T15:21:10;8.57;;;3.00;;
33826;SDS011;20128;45.582;5.298;2022-12-31T15:23:53;13.35;;;3.90;;
33826;SDS011;20128;45.582;5.298;2022-12-31T15:26:28;12.48;;;3.60;;
33826;SDS011;20128;45.582;5.298;2022-12-31T15:29:03;7.50;;;3.42;;
33826;SDS011;20128;45.582;5.298;2022-12-31T15:31:31;8.10;;;3.03;;
33826;SDS011;20128;45.582;5.298;2022-12-31T15:34:00;10.80;;;3.25;;
33826;SDS011;20128;45.582;5.298;2022-12-31T15:36:30;12.55;;;3.40;;
33826;SDS011;20128;45.582;5.298;2022-12-31T15:39:41;13.43;;;3.87;;
33826;SDS011;20128;45.582;5.298;2022-12-31T15:41:50;7.22;;;3.00;;
33826;SDS011;20128;45.582;5.298;2022-12-31T15:47:16;9.23;;;3.03;;
33826;SDS011;20128;45.582;5.298;2022-12-31T15:50:00;6.80;;;3.08;;
33826;SDS011;20128;45.582;5.298;2022-12-31T15:52:31;13.80;;;3.97;;
33826;SDS011;20128;45.582;5.298;2022-12-31T15:55:05;7.03;;;3.03;;
33826;SDS011;20128;45.582;5.298;2022-12-31T15:57:36;9.80;;;3.45;;
33826;SDS011;20128;45.582;5.298;2022-12-31T16:00:06;6.70;;;3.00;;
33826;SDS011;20128;45.582;5.298;2022-12-31T16:02:40;8.38;;;2.63;;
33826;SDS011;20128;45.582;5.298;2022-12-31T16:05:15;10.70;;;3.15;;
33826;SDS011;20128;45.582;5.298;2022-12-31T16:07:45;18.83;;;4.50;;
33826;SDS011;20128;45.582;5.298;2022-12-31T16:10:14;12.40;;;4.57;;
33826;SDS011;20128;45.582;5.298;2022-12-31T16:12:47;10.10;;;3.42;;
33826;SDS011;20128;45.582;5.298;2022-12-31T16:15:18;13.90;;;4.15;;
33826;SDS011;20128;45.582;5.298;2022-12-31T16:17:59;7.60;;;2.90;;
33826;SDS011;20128;45.582;5.298;2022-12-31T16:20:30;14.35;;;3.55;;
33826;SDS011;20128;45.582;5.298;2022-12-31T16:22:58;10.50;;;4.03;;
33826;SDS011;20128;45.582;5.298;2022-12-31T16:25:27;17.00;;;4.40;;
33826;SDS011;20128;45.582;5.298;2022-12-31T16:27:54;9.55;;;3.08;;
33826;SDS011;20128;45.582;5.298;2022-12-31T16:30:21;8.32;;;3.75;;
33826;SDS011;20128;45.582;5.298;2022-12-31T16:32:57;9.40;;;3.53;;
33826;SDS011;20128;45.582;5.298;2022-12-31T16:35:31;12.63;;;3.35;;
33826;SDS011;20128;45.582;5.298;2022-12-31T16:40:36;11.10;;;3.50;;
33826;SDS011;20128;45.582;5.298;2022-12-31T16:43:02;14.45;;;4.00;;
33826;SDS011;20128;45.582;5.298;2022-12-31T16:45:32;18.63;;;3.53;;
33826;SDS011;20128;45.582;5.298;2022-12-31T16:48:14;10.20;;;3.40;;
33826;SDS011;20128;45.582;5.298;2022-12-31T16:50:42;10.98;;;3.88;;
33826;SDS011;20128;45.582;5.298;2022-12-31T16:53:09;9.68;;;3.00;;
33826;SDS011;20128;45.582;5.298;2022-12-31T16:55:38;9.35;;;3.30;;
33826;SDS011;20128;45.582;5.298;2022-12-31T17:01:20;11.73;;;3.73;;
33826;SDS011;20128;45.582;5.298;2022-12-31T17:03:51;16.30;;;5.07;;
33826;SDS011;20128;45.582;5.298;2022-12-31T17:06:22;11.23;;;3.40;;
33826;SDS011;20128;45.582;5.298;2022-12-31T17:11:30;10.70;;;3.20;;
33826;SDS011;20128;45.582;5.298;2022-12-31T17:16:35;10.75;;;3.40;;
33826;SDS011;20128;45.582;5.298;2022-12-31T17:19:04;15.32;;;4.20;;
33826;SDS011;20128;45.582;5.298;2022-12-31T17:21:31;10.80;;;4.18;;
33826;SDS011;20128;45.582;5.298;2022-12-31T17:23:59;20.38;;;5.32;;
33826;SDS011;20128;45.582;5.298;2022-12-31T17:26:29;12.05;;;4.30;;
33826;SDS011;20128;45.582;5.298;2022-12-31T17:28:57;9.90;;;3.38;;
33826;SDS011;20128;45.582;5.298;2022-12-31T17:31:33;13.68;;;5.35;;
33826;SDS011;20128;45.582;5.298;2022-12-31T17:34:28;12.82;;;4.60;;
33826;SDS011;20128;45.582;5.298;2022-12-31T17:40:15;12.85;;;4.32;;
33826;SDS011;20128;45.582;5.298;2022-12-31T17:45:20;12.32;;;4.75;;
33826;SDS011;20128;45.582;5.298;2022-12-31T17:47:47;12.20;;;3.72;;
33826;SDS011;20128;45.582;5.298;2022-12-31T17:50:22;7.32;;;3.55;;
33826;SDS011;20128;45.582;5.298;2022-12-31T17:52:51;12.63;;;4.15;;
33826;SDS011;20128;45.582;5.298;2022-12-31T17:55:21;12.25;;;4.78;;
33826;SDS011;20128;45.582;5.298;2022-12-31T17:57:48;18.42;;;5.05;;
33826;SDS011;20128;45.582;5.298;2022-12-31T18:00:18;16.75;;;4.13;;
33826;SDS011;20128;45.582;5.298;2022-12-31T18:02:45;14.43;;;4.95;;
33826;SDS011;20128;45.582;5.298;2022-12-31T18:05:13;8.55;;;4.25;;
33826;SDS011;20128;45.582;5.298;2022-12-31T18:07:40;10.65;;;4.45;;
33826;SDS011;20128;45.582;5.298;2022-12-31T18:10:06;11.57;;;4.32;;
33826;SDS011;20128;45.582;5.298;2022-12-31T18:12:32;12.55;;;4.05;;
33826;SDS011;20128;45.582;5.298;2022-12-31T18:14:58;11.23;;;4.90;;
33826;SDS011;20128;45.582;5.298;2022-12-31T18:17:24;17.25;;;5.53;;
33826;SDS011;20128;45.582;5.298;2022-12-31T18:19:50;8.52;;;3.90;;
33826;SDS011;20128;45.582;5.298;2022-12-31T18:22:15;8.35;;;3.55;;
33826;SDS011;20128;45.582;5.298;2022-12-31T18:24:42;18.05;;;3.75;;
33826;SDS011;20128;45.582;5.298;2022-12-31T18:27:17;18.23;;;5.30;;
33826;SDS011;20128;45.582;5.298;2022-12-31T18:29:44;15.10;;;3.53;;
33826;SDS011;20128;45.582;5.298;2022-12-31T18:32:21;13.88;;;4.82;;
33826;SDS011;20128;45.582;5.298;2022-12-31T18:34:49;11.88;;;4.13;;
33826;SDS011;20128;45.582;5.298;2022-12-31T18:37:15;13.23;;;3.58;;
33826;SDS011;20128;45.582;5.298;2022-12-31T18:39:41;12.10;;;4.28;;
33826;SDS011;20128;45.582;5.298;2022-12-31T18:42:14;10.35;;;2.88;;
33826;SDS011;20128;45.582;5.298;2022-12-31T18:44:42;12.40;;;3.45;;
33826;SDS011;20128;45.582;5.298;2022-12-31T18:47:12;12.57;;;4.60;;
33826;SDS011;20128;45.582;5.298;2022-12-31T18:52:13;19.02;;;6.20;;
33826;SDS011;20128;45.582;5.298;2022-12-31T18:54:43;15.85;;;4.28;;
33826;SDS011;20128;45.582;5.298;2022-12-31T18:57:09;16.30;;;4.43;;
33826;SDS011;20128;45.582;5.298;2022-12-31T18:59:36;14.50;;;3.58;;
33826;SDS011;20128;45.582;5.298;2022-12-31T19:02:02;15.52;;;3.80;;
33826;SDS011;20128;45.582;5.298;2022-12-31T19:04:28;13.80;;;4.88;;
33826;SDS011;20128;45.582;5.298;2022-12-31T19:06:54;16.10;;;5.90;;
33826;SDS011;20128;45.582;5.298;2022-12-31T19:09:20;12.57;;;4.20;;
33826;SDS011;20128;45.582;5.298;2022-12-31T19:11:46;9.07;;;3.65;;
33826;SDS011;20128;45.582;5.298;2022-12-31T19:14:17;16.40;;;3.83;;
33826;SDS011;20128;45.582;5.298;2022-12-31T19:16:46;16.77;;;4.47;;
33826;SDS011;20128;45.582;5.298;2022-12-31T19:19:12;8.20;;;3.03;;
33826;SDS011;20128;45.582;5.298;2022-12-31T19:21:38;8.75;;;3.53;;
33826;SDS011;20128;45.582;5.298;2022-12-31T19:24:26;10.65;;;3.17;;
33826;SDS011;20128;45.582;5.298;2022-12-31T19:26:51;9.60;;;4.38;;
33826;SDS011;20128;45.582;5.298;2022-12-31T19:29:20;12.98;;;3.13;;
33826;SDS011;20128;45.582;5.298;2022-12-31T19:31:47;13.88;;;3.78;;
33826;SDS011;20128;45.582;5.298;2022-12-31T19:34:13;17.08;;;4.70;;
33826;SDS011;20128;45.582;5.298;2022-12-31T19:36:39;10.77;;;3.33;;
33826;SDS011;20128;45.582;5.298;2022-12-31T19:39:06;14.63;;;3.72;;
33826;SDS011;20128;45.582;5.298;2022-12-31T19:41:37;10.98;;;3.65;;
33826;SDS011;20128;45.582;5.298;2022-12-31T19:44:05;9.95;;;3.60;;
33826;SDS011;20128;45.582;5.298;2022-12-31T19:46:32;11.52;;;3.13;;
33826;SDS011;20128;45.582;5.298;2022-12-31T19:48:58;11.48;;;3.67;;
33826;SDS011;20128;45.582;5.298;2022-12-31T19:51:25;14.85;;;3.75;;
33826;SDS011;20128;45.582;5.298;2022-12-31T19:53:50;12.55;;;3.17;;